createdAt,value
2022-12-08T00:01:24.575Z,2.42
2022-12-08T00:03:52.174Z,2.25
2022-12-08T00:06:50.044Z,2.25
2022-12-08T00:09:39.447Z,2.75
2022-12-08T00:12:13.249Z,2.55
2022-12-08T00:14:45.866Z,3.42
2022-12-08T00:17:14.581Z,2.33
2022-12-08T00:19:42.392Z,2.47
2022-12-08T00:22:11.013Z,2.17
2022-12-08T00:24:39.999Z,2.10
2022-12-08T00:27:08.837Z,2.38
2022-12-08T00:29:36.058Z,2.50
2022-12-08T00:32:03.334Z,3.25
2022-12-08T00:34:31.509Z,2.17
2022-12-08T00:36:58.515Z,2.42
2022-12-08T00:39:25.568Z,2.40
2022-12-08T00:42:11.096Z,2.50
2022-12-08T00:44:38.864Z,2.05
2022-12-08T00:47:05.913Z,2.55
2022-12-08T00:49:32.933Z,2.00
2022-12-08T00:52:00.226Z,2.30
2022-12-08T00:54:27.226Z,2.20
2022-12-08T00:56:54.318Z,2.20
2022-12-08T00:59:21.394Z,2.30
2022-12-08T01:01:48.688Z,2.30
2022-12-08T01:04:17.975Z,2.15
2022-12-08T01:06:45.713Z,1.67
2022-12-08T01:09:15.707Z,2.20
2022-12-08T01:11:44.703Z,1.92
2022-12-08T01:14:12.737Z,2.28
2022-12-08T01:16:41.663Z,1.80
2022-12-08T01:19:12.192Z,1.90
2022-12-08T01:21:40.428Z,2.08
2022-12-08T01:24:08.035Z,2.03
2022-12-08T01:26:35.089Z,2.15
2022-12-08T01:29:02.155Z,1.90
2022-12-08T01:31:29.256Z,1.95
2022-12-08T01:33:56.804Z,2.17
2022-12-08T01:36:29.115Z,2.10
2022-12-08T01:38:58.744Z,2.20
2022-12-08T01:41:30.509Z,2.00
2022-12-08T01:44:10.904Z,1.92
2022-12-08T01:46:41.129Z,1.95
2022-12-08T01:49:24.903Z,1.85
2022-12-08T01:52:30.476Z,1.90
2022-12-08T01:55:10.768Z,2.13
2022-12-08T01:57:44.256Z,1.90
2022-12-08T02:00:15.070Z,1.65
2022-12-08T02:03:07.249Z,1.50
2022-12-08T02:05:39.979Z,1.95
2022-12-08T02:08:10.830Z,1.90
2022-12-08T02:10:41.169Z,1.33
2022-12-08T02:13:12.584Z,2.10
2022-12-08T02:15:53.577Z,2.13
2022-12-08T02:19:28.577Z,1.90
2022-12-08T02:22:04.898Z,1.40
2022-12-08T02:24:40.250Z,1.77
2022-12-08T02:27:36.748Z,2.05
2022-12-08T02:30:22.266Z,1.30
2022-12-08T02:33:14.205Z,1.90
2022-12-08T02:36:01.149Z,2.10
2022-12-08T02:38:31.010Z,1.90
2022-12-08T02:41:01.078Z,1.88
2022-12-08T02:43:44.102Z,1.90
2022-12-08T02:46:22.055Z,2.30
2022-12-08T02:48:51.744Z,2.00
2022-12-08T02:51:19.975Z,2.00
2022-12-08T02:53:48.209Z,1.90
2022-12-08T02:56:15.234Z,1.60
2022-12-08T02:58:51.165Z,2.05
2022-12-08T03:01:18.232Z,1.77
2022-12-08T03:04:06.303Z,2.35
2022-12-08T03:06:50.653Z,2.10
2022-12-08T03:09:43.649Z,2.03
2022-12-08T03:12:16.796Z,1.67
2022-12-08T03:14:48.376Z,1.50
2022-12-08T03:17:19.613Z,1.45
2022-12-08T03:19:49.127Z,1.90
2022-12-08T03:22:20.172Z,1.50
2022-12-08T03:24:47.519Z,1.80
2022-12-08T03:27:21.174Z,2.10
2022-12-08T03:29:51.070Z,1.90
2022-12-08T03:32:36.537Z,1.77
2022-12-08T03:35:09.679Z,1.60
2022-12-08T03:37:38.574Z,2.00
2022-12-08T03:40:08.844Z,1.75
2022-12-08T03:42:35.833Z,1.50
2022-12-08T03:45:03.358Z,1.75
2022-12-08T03:47:30.434Z,1.45
2022-12-08T03:49:57.513Z,2.08
2022-12-08T03:52:24.741Z,1.95
2022-12-08T03:54:51.766Z,1.92
2022-12-08T03:57:18.761Z,1.77
2022-12-08T03:59:45.748Z,2.10
2022-12-08T04:02:12.849Z,2.17
2022-12-08T04:04:40.073Z,2.17
2022-12-08T04:07:07.193Z,2.10
2022-12-08T04:09:34.245Z,2.17
2022-12-08T04:12:01.233Z,2.60
2022-12-08T04:14:28.263Z,2.28
2022-12-08T04:16:55.362Z,2.15
2022-12-08T04:19:22.460Z,2.65
2022-12-08T04:21:49.558Z,2.50
2022-12-08T04:24:16.607Z,2.88
2022-12-08T04:26:43.795Z,2.20
2022-12-08T04:29:10.835Z,2.67
2022-12-08T04:31:38.235Z,2.75
2022-12-08T04:34:05.340Z,2.97
2022-12-08T04:36:32.474Z,2.95
2022-12-08T04:38:59.473Z,2.90
2022-12-08T04:41:26.629Z,2.75
2022-12-08T04:43:53.684Z,3.00
2022-12-08T04:46:20.830Z,3.50
2022-12-08T04:48:48.001Z,3.10
2022-12-08T04:51:19.475Z,3.40
2022-12-08T04:53:47.533Z,3.60
2022-12-08T04:56:19.483Z,3.92
2022-12-08T04:58:46.560Z,3.70
2022-12-08T05:01:14.218Z,3.90
2022-12-08T05:03:41.331Z,3.83
2022-12-08T05:06:11.124Z,3.75
2022-12-08T05:08:38.174Z,3.40
2022-12-08T05:11:07.684Z,4.18
2022-12-08T05:13:34.895Z,3.60
2022-12-08T05:16:07.938Z,3.53
2022-12-08T05:18:35.756Z,3.70
2022-12-08T05:21:03.613Z,4.15
2022-12-08T05:23:30.719Z,3.80
2022-12-08T05:25:58.397Z,4.20
2022-12-08T05:28:41.405Z,4.28
2022-12-08T05:31:10.290Z,4.13
2022-12-08T05:33:37.375Z,3.53
2022-12-08T05:36:04.610Z,4.13
2022-12-08T05:38:31.661Z,3.95
2022-12-08T05:40:58.820Z,5.25
2022-12-08T05:43:25.867Z,5.13
2022-12-08T05:45:52.895Z,5.10
2022-12-08T05:48:19.926Z,5.50
2022-12-08T05:50:48.257Z,5.13
2022-12-08T05:53:17.012Z,6.00
2022-12-08T05:55:44.739Z,6.68
2022-12-08T05:58:17.898Z,5.80
2022-12-08T06:00:45.893Z,5.55
2022-12-08T06:03:14.258Z,5.95
2022-12-08T06:05:42.835Z,5.40
2022-12-08T06:08:10.480Z,5.80
2022-12-08T06:10:45.474Z,5.60
2022-12-08T06:13:13.283Z,4.90
2022-12-08T06:15:40.754Z,5.80
2022-12-08T06:18:08.769Z,5.90
2022-12-08T06:20:35.868Z,6.07
2022-12-08T06:23:03.684Z,5.85
2022-12-08T06:25:30.949Z,6.10
2022-12-08T06:27:58.044Z,6.07
2022-12-08T06:30:25.071Z,5.72
2022-12-08T06:32:52.270Z,6.05
2022-12-08T06:35:19.412Z,5.72
2022-12-08T06:37:46.448Z,6.22
2022-12-08T06:40:13.908Z,6.03
2022-12-08T06:42:43.919Z,6.10
2022-12-08T06:45:20.079Z,6.75
2022-12-08T06:47:47.150Z,7.82
2022-12-08T06:50:15.062Z,7.57
2022-12-08T06:52:55.790Z,8.00
2022-12-08T06:55:59.430Z,7.70
2022-12-08T06:58:16.174Z,8.98
2022-12-08T07:00:43.978Z,7.40
2022-12-08T07:03:11.955Z,9.15
2022-12-08T07:05:39.466Z,7.82
2022-12-08T07:08:08.911Z,8.68
2022-12-08T07:10:36.505Z,7.85
2022-12-08T07:13:04.200Z,8.80
2022-12-08T07:15:31.291Z,9.00
2022-12-08T07:18:00.243Z,9.52
2022-12-08T07:20:28.392Z,9.23
2022-12-08T07:22:55.504Z,8.35
2022-12-08T07:25:22.652Z,9.02
2022-12-08T07:27:51.754Z,8.43
2022-12-08T07:30:19.168Z,8.70
2022-12-08T07:32:46.613Z,8.45
2022-12-08T07:35:13.956Z,8.73
2022-12-08T07:37:41.064Z,8.55
2022-12-08T07:40:09.347Z,8.85
2022-12-08T07:42:36.474Z,9.48
2022-12-08T07:45:03.760Z,8.98
2022-12-08T07:47:31.118Z,10.05
2022-12-08T07:49:58.159Z,9.32
2022-12-08T07:52:25.344Z,9.60
2022-12-08T07:54:52.404Z,10.10
2022-12-08T07:57:19.449Z,10.98
2022-12-08T07:59:46.448Z,10.68
2022-12-08T08:02:26.283Z,10.55
2022-12-08T08:04:53.775Z,10.10
2022-12-08T08:07:21.037Z,9.82
2022-12-08T08:09:48.113Z,10.43
2022-12-08T08:12:30.705Z,9.30
2022-12-08T08:14:59.219Z,9.77
2022-12-08T08:17:26.390Z,9.40
2022-12-08T08:19:53.563Z,10.15
2022-12-08T08:22:20.594Z,9.65
2022-12-08T08:24:47.583Z,9.65
2022-12-08T08:27:14.746Z,9.35
2022-12-08T08:29:41.876Z,9.70
2022-12-08T08:32:09.065Z,10.20
2022-12-08T08:34:36.154Z,9.93
2022-12-08T08:37:03.286Z,9.45
2022-12-08T08:39:31.997Z,9.43
2022-12-08T08:41:59.298Z,8.55
2022-12-08T08:44:26.478Z,9.73
2022-12-08T08:46:53.752Z,9.95
2022-12-08T08:49:21.547Z,11.05
2022-12-08T08:51:48.654Z,11.00
2022-12-08T08:54:15.925Z,12.00
2022-12-08T08:56:43.022Z,12.13
2022-12-08T08:59:10.911Z,14.80
2022-12-08T09:01:37.969Z,14.80
2022-12-08T09:04:05.285Z,15.95
2022-12-08T09:06:32.566Z,16.15
2022-12-08T09:08:59.835Z,16.27
2022-12-08T09:11:26.951Z,19.30
2022-12-08T09:13:54.843Z,20.23
2022-12-08T09:16:23.078Z,20.08
2022-12-08T09:18:50.856Z,21.25
2022-12-08T09:21:26.092Z,23.23
2022-12-08T09:23:55.346Z,23.75
2022-12-08T09:26:23.426Z,24.03
2022-12-08T09:28:51.903Z,25.70
2022-12-08T09:31:20.751Z,24.45
2022-12-08T09:33:48.426Z,25.17
2022-12-08T09:36:15.788Z,25.60
2022-12-08T09:38:42.820Z,22.63
2022-12-08T09:41:38.960Z,23.02
2022-12-08T09:44:33.294Z,24.48
2022-12-08T09:47:01.915Z,21.63
2022-12-08T09:49:40.276Z,23.45
2022-12-08T09:52:19.043Z,23.23
2022-12-08T09:54:46.197Z,22.00
2022-12-08T09:57:19.718Z,19.52
2022-12-08T09:59:53.598Z,18.60
2022-12-08T10:02:26.837Z,18.33
2022-12-08T10:04:56.317Z,18.63
2022-12-08T10:07:45.563Z,18.92
2022-12-08T10:10:21.468Z,16.60
2022-12-08T10:12:59.890Z,16.30
2022-12-08T10:15:46.317Z,17.35
2022-12-08T10:18:19.500Z,15.77
2022-12-08T10:20:49.315Z,15.52
2022-12-08T10:23:29.149Z,16.77
2022-12-08T10:26:26.587Z,16.48
2022-12-08T10:28:53.743Z,16.35
2022-12-08T10:31:23.856Z,15.60
2022-12-08T10:36:51.521Z,17.35
2022-12-08T10:42:02.964Z,18.08
2022-12-08T10:44:30.258Z,19.15
2022-12-08T10:46:58.710Z,19.27
2022-12-08T10:49:32.495Z,18.73
2022-12-08T10:51:59.667Z,17.95
2022-12-08T10:54:34.589Z,20.38
2022-12-08T10:57:02.012Z,18.58
2022-12-08T10:59:29.447Z,17.92
2022-12-08T11:01:57.772Z,19.13
2022-12-08T11:04:36.718Z,18.83
2022-12-08T11:07:06.552Z,19.08
2022-12-08T11:09:50.965Z,23.63
2022-12-08T11:12:22.325Z,20.95
2022-12-08T11:15:01.621Z,20.30
2022-12-08T11:17:35.999Z,19.97
2022-12-08T11:20:22.574Z,20.58
2022-12-08T11:22:55.242Z,19.40
2022-12-08T11:25:26.149Z,20.17
2022-12-08T11:27:57.539Z,20.50
2022-12-08T11:30:49.039Z,20.13
2022-12-08T11:33:16.069Z,19.25
2022-12-08T11:35:52.051Z,19.88
2022-12-08T11:38:25.051Z,19.15
2022-12-08T11:41:12.301Z,21.33
2022-12-08T11:43:48.501Z,21.52
2022-12-08T11:46:21.313Z,21.55
2022-12-08T11:48:55.057Z,21.13
2022-12-08T11:51:32.532Z,19.73
2022-12-08T11:54:02.313Z,21.05
2022-12-08T11:56:40.610Z,19.48
2022-12-08T11:59:31.790Z,19.80
2022-12-08T12:02:01.127Z,22.23
2022-12-08T12:04:50.964Z,21.67
2022-12-08T12:07:23.021Z,19.50
2022-12-08T12:10:14.886Z,19.73
2022-12-08T12:13:13.608Z,20.35
2022-12-08T12:16:22.034Z,17.73
2022-12-08T12:19:03.429Z,19.70
2022-12-08T12:21:40.161Z,18.95
2022-12-08T12:24:10.203Z,18.33
2022-12-08T12:27:10.178Z,18.70
2022-12-08T12:29:39.040Z,20.40
2022-12-08T12:32:08.888Z,19.02
2022-12-08T12:34:39.294Z,17.98
2022-12-08T12:37:11.336Z,18.70
2022-12-08T12:39:53.102Z,19.98
2022-12-08T12:42:42.691Z,18.73
2022-12-08T12:45:20.172Z,18.20
2022-12-08T12:47:56.232Z,15.88
2022-12-08T12:50:43.811Z,18.52
2022-12-08T12:53:16.528Z,18.05
2022-12-08T12:55:46.575Z,17.88
2022-12-08T12:58:36.664Z,18.42
2022-12-08T13:01:15.327Z,20.02
2022-12-08T13:03:49.960Z,19.25
2022-12-08T13:06:38.302Z,21.55
2022-12-08T13:09:07.466Z,19.63
2022-12-08T13:11:51.505Z,19.25
2022-12-08T13:14:29.634Z,18.45
2022-12-08T13:16:59.223Z,20.02
2022-12-08T13:19:29.662Z,19.98
2022-12-08T13:21:56.844Z,20.00
2022-12-08T13:24:29.620Z,17.95
2022-12-08T13:27:05.771Z,20.65
2022-12-08T13:29:34.117Z,20.88
2022-12-08T13:32:02.019Z,20.13
2022-12-08T13:34:33.420Z,23.30
2022-12-08T13:37:09.143Z,19.48
2022-12-08T13:39:39.207Z,20.05
2022-12-08T13:42:29.336Z,21.15
2022-12-08T13:45:30.152Z,19.52
2022-12-08T13:54:56.034Z,19.73
2022-12-08T13:57:05.133Z,20.10
2022-12-08T13:59:34.533Z,20.67
2022-12-08T14:02:30.344Z,19.13
2022-12-08T14:07:47.013Z,21.75
2022-12-08T14:10:21.101Z,21.20
2022-12-08T14:12:55.525Z,21.70
2022-12-08T14:15:22.857Z,22.02
2022-12-08T14:17:57.575Z,23.77
2022-12-08T14:20:33.814Z,22.90
2022-12-08T14:23:09.943Z,20.95
2022-12-08T14:25:38.901Z,22.60
2022-12-08T14:28:06.095Z,22.48
2022-12-08T14:30:34.775Z,22.00
2022-12-08T14:33:04.701Z,24.08
2022-12-08T14:35:39.094Z,24.67
2022-12-08T14:38:13.897Z,23.83
2022-12-08T14:40:46.699Z,24.77
2022-12-08T14:43:20.079Z,23.23
2022-12-08T14:45:48.443Z,24.55
2022-12-08T14:48:38.930Z,24.45
2022-12-08T14:51:12.691Z,22.23
2022-12-08T14:54:06.711Z,24.13
2022-12-08T14:56:38.851Z,25.48
2022-12-08T14:59:38.296Z,23.25
2022-12-08T15:02:20.003Z,24.80
2022-12-08T15:04:56.305Z,24.65
2022-12-08T15:07:26.314Z,24.27
2022-12-08T15:10:26.913Z,25.77
2022-12-08T15:13:07.563Z,25.75
2022-12-08T15:15:51.120Z,21.27
2022-12-08T15:18:21.803Z,23.95
2022-12-08T15:21:01.566Z,23.92
2022-12-08T15:23:42.845Z,24.55
2022-12-08T15:26:23.613Z,24.52
2022-12-08T15:28:51.421Z,24.02
2022-12-08T15:31:19.245Z,25.25
2022-12-08T15:33:46.387Z,24.48
2022-12-08T15:36:13.499Z,23.55
2022-12-08T15:38:40.561Z,24.15
2022-12-08T15:41:13.026Z,23.80
2022-12-08T15:43:41.860Z,27.15
2022-12-08T15:46:09.094Z,23.67
2022-12-08T15:48:37.938Z,22.13
2022-12-08T15:51:05.273Z,24.05
2022-12-08T15:53:32.286Z,23.85
2022-12-08T15:56:26.860Z,23.95
2022-12-08T15:58:54.754Z,23.23
2022-12-08T16:01:22.870Z,24.45
2022-12-08T16:07:19.763Z,26.20
2022-12-08T16:09:33.572Z,26.77
2022-12-08T16:12:19.502Z,25.60
2022-12-08T16:15:47.248Z,24.60
2022-12-08T16:17:34.287Z,24.60
2022-12-08T16:20:01.981Z,24.70
2022-12-08T16:25:22.437Z,24.20
2022-12-08T16:28:08.255Z,24.13
2022-12-08T16:30:40.005Z,23.15
2022-12-08T16:33:07.124Z,23.50
2022-12-08T16:35:34.203Z,24.40
2022-12-08T16:38:01.419Z,23.02
2022-12-08T16:40:28.666Z,24.05
2022-12-08T16:42:55.723Z,22.27
2022-12-08T16:45:28.659Z,23.15
2022-12-08T16:48:00.736Z,22.20
2022-12-08T16:50:29.533Z,22.02
2022-12-08T16:52:59.906Z,22.42
2022-12-08T16:55:27.617Z,23.75
2022-12-08T16:57:55.184Z,21.73
2022-12-08T17:00:25.046Z,21.63
2022-12-08T17:02:53.121Z,23.90
2022-12-08T17:05:22.810Z,22.35
2022-12-08T17:07:51.502Z,21.50
2022-12-08T17:10:25.315Z,22.73
2022-12-08T17:12:53.488Z,21.65
2022-12-08T17:15:23.891Z,22.73
2022-12-08T17:17:51.891Z,21.33
2022-12-08T17:20:29.682Z,21.83
2022-12-08T17:22:58.396Z,20.13
2022-12-08T17:25:26.987Z,22.17
2022-12-08T17:27:54.763Z,19.92
2022-12-08T17:30:22.101Z,19.00
2022-12-08T17:32:49.209Z,20.40
2022-12-08T17:35:16.383Z,19.33
2022-12-08T17:37:44.181Z,19.48
2022-12-08T17:40:11.741Z,20.27
2022-12-08T17:42:39.192Z,19.75
2022-12-08T17:45:10.371Z,20.77
2022-12-08T17:47:37.914Z,18.20
2022-12-08T17:50:06.861Z,18.40
2022-12-08T17:52:34.503Z,19.20
2022-12-08T17:55:01.579Z,18.60
2022-12-08T17:57:28.690Z,17.42
2022-12-08T17:59:56.005Z,17.35
2022-12-08T18:02:23.381Z,17.25
2022-12-08T18:04:50.594Z,18.65
2022-12-08T18:07:17.771Z,17.98
2022-12-08T18:09:44.843Z,17.55
2022-12-08T18:12:11.985Z,17.73
2022-12-08T18:14:39.084Z,17.38
2022-12-08T18:17:06.271Z,18.52
2022-12-08T18:19:33.744Z,18.88
2022-12-08T18:22:01.686Z,18.98
2022-12-08T18:24:28.855Z,19.25
2022-12-08T18:26:57.606Z,19.58
2022-12-08T18:29:25.359Z,17.92
2022-12-08T18:31:52.574Z,18.75
2022-12-08T18:34:19.988Z,18.65
2022-12-08T18:36:48.062Z,17.05
2022-12-08T18:39:32.481Z,17.50
2022-12-08T18:42:02.770Z,16.55
2022-12-08T18:44:29.993Z,16.98
2022-12-08T18:46:57.098Z,17.48
2022-12-08T18:49:24.096Z,18.15
2022-12-08T18:51:51.203Z,18.30
2022-12-08T18:54:22.028Z,17.20
2022-12-08T18:56:51.617Z,18.75
2022-12-08T18:59:20.700Z,17.38
2022-12-08T19:01:47.755Z,17.73
2022-12-08T19:04:32.643Z,18.80
2022-12-08T19:07:01.812Z,17.77
2022-12-08T19:09:29.290Z,16.90
2022-12-08T19:11:57.315Z,16.77
2022-12-08T19:14:28.286Z,17.73
2022-12-08T19:16:59.782Z,17.60
2022-12-08T19:19:27.799Z,18.20
2022-12-08T19:21:55.110Z,19.55
2022-12-08T19:24:22.539Z,19.80
2022-12-08T19:26:49.810Z,20.02
2022-12-08T19:29:17.288Z,20.75
2022-12-08T19:31:44.635Z,20.25
2022-12-08T19:34:13.699Z,20.00
2022-12-08T19:36:43.180Z,20.02
2022-12-08T19:39:46.823Z,21.65
2022-12-08T19:42:38.681Z,20.27
2022-12-08T19:45:07.891Z,21.02
2022-12-08T19:47:35.132Z,23.23
2022-12-08T19:50:22.515Z,22.92
2022-12-08T19:52:50.111Z,22.40
2022-12-08T19:55:17.341Z,22.77
2022-12-08T19:57:44.483Z,22.17
2022-12-08T20:00:13.072Z,25.25
2022-12-08T20:02:40.294Z,24.50
2022-12-08T20:05:08.925Z,24.25
2022-12-08T20:07:36.212Z,25.50
2022-12-08T20:10:07.321Z,25.67
2022-12-08T20:12:34.581Z,24.73
2022-12-08T20:15:01.860Z,27.15
2022-12-08T20:17:28.931Z,29.10
2022-12-08T20:19:56.009Z,27.27
2022-12-08T20:22:23.088Z,25.50
2022-12-08T20:24:58.267Z,26.77
2022-12-08T20:27:29.272Z,28.23
2022-12-08T20:29:56.416Z,25.20
2022-12-08T20:32:23.571Z,25.02
2022-12-08T20:34:50.796Z,26.30
2022-12-08T20:37:17.870Z,25.67
2022-12-08T20:39:44.994Z,24.23
2022-12-08T20:42:13.986Z,24.63
2022-12-08T20:44:44.663Z,25.63
2022-12-08T20:47:13.167Z,27.17
2022-12-08T20:49:40.439Z,26.40
2022-12-08T20:52:08.641Z,26.38
2022-12-08T20:54:37.346Z,23.73
2022-12-08T20:57:04.930Z,24.15
2022-12-08T20:59:32.372Z,26.23
2022-12-08T21:02:00.794Z,27.33
2022-12-08T21:04:28.293Z,26.35
2022-12-08T21:06:55.801Z,24.92
2022-12-08T21:09:23.209Z,26.00
2022-12-08T21:11:50.429Z,32.58
2022-12-08T21:14:17.978Z,26.98
2022-12-08T21:16:45.589Z,30.20
2022-12-08T21:19:13.088Z,27.30
2022-12-08T21:21:40.221Z,29.95
2022-12-08T21:24:07.812Z,26.50
2022-12-08T21:26:34.872Z,28.17
2022-12-08T21:29:01.983Z,26.45
2022-12-08T21:31:31.982Z,26.77
2022-12-08T21:36:27.452Z,23.88
2022-12-08T21:38:55.294Z,28.65
2022-12-08T21:41:42.115Z,25.98
2022-12-08T21:44:11.930Z,27.50
2022-12-08T21:46:39.215Z,29.77
2022-12-08T21:49:06.724Z,29.27
2022-12-08T21:51:37.942Z,28.42
2022-12-08T21:54:05.429Z,28.13
2022-12-08T21:56:32.635Z,31.73
2022-12-08T21:58:59.867Z,32.70
2022-12-08T22:01:27.198Z,27.75
2022-12-08T22:03:54.812Z,29.20
2022-12-08T22:06:22.123Z,29.58
2022-12-08T22:08:49.281Z,30.05
2022-12-08T22:11:17.077Z,26.95
2022-12-08T22:13:44.438Z,28.40
2022-12-08T22:16:14.966Z,27.45
2022-12-08T22:18:42.608Z,25.45
2022-12-08T22:21:18.399Z,24.95
2022-12-08T22:23:45.613Z,23.48
2022-12-08T22:26:13.541Z,25.17
2022-12-08T22:28:43.039Z,25.02
2022-12-08T22:31:18.565Z,23.55
2022-12-08T22:33:45.995Z,25.27
2022-12-08T22:36:19.432Z,24.20
2022-12-08T22:38:47.329Z,27.55
2022-12-08T22:41:15.413Z,23.20
2022-12-08T22:43:43.012Z,23.33
2022-12-08T22:46:14.462Z,26.13
2022-12-08T22:48:41.884Z,22.30
2022-12-08T22:51:09.784Z,23.48
2022-12-08T22:53:37.201Z,22.13
2022-12-08T22:56:05.777Z,20.90
2022-12-08T22:58:33.086Z,22.85
2022-12-08T23:01:00.328Z,21.20
2022-12-08T23:03:27.462Z,23.85
2022-12-08T23:05:54.736Z,21.42
2022-12-08T23:08:21.860Z,22.80
2022-12-08T23:10:51.070Z,20.58
2022-12-08T23:13:18.618Z,21.80
2022-12-08T23:15:46.029Z,24.23
2022-12-08T23:18:19.274Z,22.27
2022-12-08T23:20:47.779Z,22.85
2022-12-08T23:23:15.449Z,22.10
2022-12-08T23:25:43.861Z,22.50
2022-12-08T23:28:11.387Z,22.48
2022-12-08T23:30:41.453Z,25.60
2022-12-08T23:33:08.619Z,26.77
2022-12-08T23:35:35.869Z,24.90
2022-12-08T23:38:03.011Z,24.90
2022-12-08T23:40:30.540Z,26.27
2022-12-08T23:42:57.751Z,22.88
2022-12-08T23:45:24.908Z,23.30
2022-12-08T23:47:52.309Z,23.15
2022-12-08T23:50:19.677Z,22.70
2022-12-08T23:52:46.799Z,22.42
2022-12-08T23:55:19.461Z,23.92
2022-12-08T23:57:46.773Z,23.20
